AFR97 KMCO-LFPG
Flight info
| Callsign | AFR97 |
|---|---|
| Flight time | N/A |
| Altitude | 37000 |
| Route | FATHE4 VIYAP Q87 JROSS DCT CHS DCT ILM/M083F370 DCT MUNEY/M083F390 M202 LOMPI/N0471F390 DCT SUPRY/M083F400 DCT 46N050W 48N040W 50N030W 51N020W DCT DINIM DCT ELSOX/M084F410 DCT LULOX/N0489F410 DCT NAKID DCT ANNET UM25 INGOR/N0434F280 UM25 LUKIP |
| Aircraft | B772/H-SDE2E3FGHIJ5LORVWXY/LB1D1 |
Departure
| Time | N/A |
|---|---|
| Airport | Orlando International Airport (KMCO) |
Arrival
| Time | 2026-05-03 22:40 |
|---|---|
| Airport | Charles de Gaulle International Airport (LFPG) |
| Time | Latitude | Longitude | Altitude | Speed | Heading |
|---|---|---|---|---|---|
| 2026-05-03 20:15 | 50.65717 | -24.54200 | 40302 ft | 480 kts | 78° |
| 2026-05-03 20:15 | 50.66704 | -24.43822 | 40303 ft | 479 kts | 78° |
| 2026-05-03 20:16 | 50.67678 | -24.33479 | 40304 ft | 479 kts | 79° |
| 2026-05-03 20:16 | 50.68640 | -24.23161 | 40303 ft | 480 kts | 79° |
| 2026-05-03 20:17 | 50.69600 | -24.12764 | 40297 ft | 479 kts | 79° |
| 2026-05-03 20:17 | 50.70546 | -24.02409 | 40298 ft | 479 kts | 79° |
| 2026-05-03 20:18 | 50.71483 | -23.92055 | 40291 ft | 479 kts | 79° |
| 2026-05-03 20:18 | 50.72408 | -23.81720 | 40293 ft | 479 kts | 79° |
| 2026-05-03 20:19 | 50.73331 | -23.71308 | 40296 ft | 478 kts | 79° |
| 2026-05-03 20:19 | 50.74240 | -23.60943 | 40305 ft | 478 kts | 79° |
| 2026-05-03 20:20 | 50.75139 | -23.50589 | 40305 ft | 478 kts | 79° |
| 2026-05-03 20:20 | 50.76027 | -23.40244 | 40304 ft | 478 kts | 79° |
| 2026-05-03 20:21 | 50.76904 | -23.29924 | 40302 ft | 478 kts | 80° |
| 2026-05-03 20:21 | 50.77774 | -23.19570 | 40297 ft | 478 kts | 80° |
| 2026-05-03 20:22 | 50.78638 | -23.09182 | 40298 ft | 478 kts | 80° |
| 2026-05-03 20:22 | 50.79493 | -22.98778 | 40295 ft | 478 kts | 80° |
| 2026-05-03 20:23 | 50.80336 | -22.88407 | 40293 ft | 478 kts | 80° |
| 2026-05-03 20:23 | 50.81168 | -22.78057 | 40289 ft | 477 kts | 80° |
| 2026-05-03 20:24 | 50.81988 | -22.67731 | 40285 ft | 476 kts | 80° |
| 2026-05-03 20:24 | 50.82806 | -22.57320 | 40281 ft | 478 kts | 80° |
| 2026-05-03 20:25 | 50.83612 | -22.46940 | 40275 ft | 479 kts | 80° |
| 2026-05-03 20:25 | 50.84412 | -22.36505 | 40269 ft | 477 kts | 79° |
| 2026-05-03 20:26 | 50.85195 | -22.26180 | 40263 ft | 478 kts | 81° |
| 2026-05-03 20:26 | 50.85973 | -22.15790 | 40267 ft | 477 kts | 81° |
| 2026-05-03 20:27 | 50.86742 | -22.05391 | 40272 ft | 477 kts | 80° |
| 2026-05-03 20:27 | 50.87500 | -21.95017 | 40272 ft | 477 kts | 80° |
| 2026-05-03 20:28 | 50.88258 | -21.84519 | 40270 ft | 477 kts | 81° |
| 2026-05-03 20:28 | 50.88998 | -21.74131 | 40268 ft | 477 kts | 81° |
| 2026-05-03 20:29 | 50.89726 | -21.63773 | 40267 ft | 477 kts | 80° |
| 2026-05-03 20:29 | 50.90449 | -21.53351 | 40264 ft | 476 kts | 80° |
| 2026-05-03 20:30 | 50.91164 | -21.42926 | 40263 ft | 476 kts | 80° |
| 2026-05-03 20:30 | 50.91863 | -21.32576 | 40260 ft | 476 kts | 81° |
| 2026-05-03 20:31 | 50.92557 | -21.22177 | 40258 ft | 476 kts | 81° |
| 2026-05-03 20:31 | 50.93240 | -21.11792 | 40255 ft | 476 kts | 81° |
| 2026-05-03 20:32 | 50.93914 | -21.01402 | 40254 ft | 476 kts | 81° |
| 2026-05-03 20:32 | 50.94579 | -20.91008 | 40248 ft | 476 kts | 81° |
| 2026-05-03 20:33 | 50.95233 | -20.80638 | 40247 ft | 477 kts | 81° |
| 2026-05-03 20:33 | 50.95880 | -20.70229 | 40247 ft | 475 kts | 81° |
| 2026-05-03 20:34 | 50.96520 | -20.59792 | 40249 ft | 475 kts | 81° |
| 2026-05-03 20:34 | 50.97145 | -20.49421 | 40247 ft | 476 kts | 81° |
| 2026-05-03 20:35 | 50.97763 | -20.39033 | 40250 ft | 475 kts | 81° |
| 2026-05-03 20:35 | 50.98371 | -20.28649 | 40248 ft | 476 kts | 81° |
| 2026-05-03 20:36 | 50.98974 | -20.18184 | 40246 ft | 476 kts | 81° |
| 2026-05-03 20:36 | 50.99562 | -20.07829 | 40247 ft | 476 kts | 81° |
| 2026-05-03 20:37 | 51.00012 | -19.97336 | 40236 ft | 478 kts | 84° |
| 2026-05-03 20:37 | 51.00250 | -19.86898 | 40243 ft | 477 kts | 84° |
| 2026-05-03 20:38 | 51.00468 | -19.76365 | 40230 ft | 477 kts | 84° |
| 2026-05-03 20:38 | 51.00672 | -19.65883 | 40239 ft | 477 kts | 84° |
| 2026-05-03 20:39 | 51.00863 | -19.55462 | 40226 ft | 476 kts | 84° |
| 2026-05-03 20:39 | 51.01043 | -19.45003 | 40224 ft | 476 kts | 84° |
| 2026-05-03 20:40 | 51.01214 | -19.34529 | 40220 ft | 476 kts | 85° |
| 2026-05-03 20:40 | 51.01375 | -19.24037 | 40214 ft | 477 kts | 85° |
| 2026-05-03 20:41 | 51.01527 | -19.13527 | 40207 ft | 478 kts | 85° |
| 2026-05-03 20:41 | 51.01668 | -19.03030 | 40201 ft | 477 kts | 85° |
| 2026-05-03 20:42 | 51.01800 | -18.92587 | 40203 ft | 477 kts | 85° |
| 2026-05-03 20:42 | 51.01922 | -18.82141 | 40200 ft | 475 kts | 85° |
| 2026-05-03 20:43 | 51.02036 | -18.71689 | 40204 ft | 476 kts | 85° |
| 2026-05-03 20:43 | 51.02140 | -18.61199 | 40199 ft | 475 kts | 85° |
| 2026-05-03 20:44 | 51.02234 | -18.50781 | 40201 ft | 475 kts | 85° |
| 2026-05-03 20:44 | 51.02320 | -18.40313 | 40196 ft | 476 kts | 85° |
| 2026-05-03 20:45 | 51.02396 | -18.29845 | 40194 ft | 477 kts | 86° |
| 2026-05-03 20:45 | 51.02463 | -18.19326 | 40190 ft | 476 kts | 86° |
| 2026-05-03 20:46 | 51.02520 | -18.08856 | 40188 ft | 476 kts | 86° |
| 2026-05-03 20:46 | 51.02568 | -17.98440 | 40184 ft | 476 kts | 86° |
| 2026-05-03 20:47 | 51.02606 | -17.87933 | 40176 ft | 475 kts | 86° |
| 2026-05-03 20:47 | 51.02636 | -17.77513 | 40197 ft | 475 kts | 86° |
| 2026-05-03 20:48 | 51.02655 | -17.67040 | 40195 ft | 474 kts | 86° |
| 2026-05-03 20:48 | 51.02666 | -17.56632 | 40191 ft | 476 kts | 86° |
| 2026-05-03 20:49 | 51.02667 | -17.46180 | 40199 ft | 475 kts | 86° |
| 2026-05-03 20:49 | 51.02659 | -17.35726 | 40184 ft | 476 kts | 86° |
| 2026-05-03 20:50 | 51.02642 | -17.25211 | 40194 ft | 476 kts | 87° |
| 2026-05-03 20:50 | 51.02615 | -17.14768 | 40175 ft | 475 kts | 86° |
| 2026-05-03 20:51 | 51.02579 | -17.04309 | 40185 ft | 475 kts | 87° |
| 2026-05-03 20:51 | 51.02534 | -16.93862 | 40192 ft | 477 kts | 87° |
| 2026-05-03 20:52 | 51.02479 | -16.83396 | 40184 ft | 477 kts | 87° |
| 2026-05-03 20:52 | 51.02414 | -16.72870 | 40173 ft | 475 kts | 87° |
| 2026-05-03 20:53 | 51.02340 | -16.62424 | 40176 ft | 475 kts | 87° |
| 2026-05-03 20:53 | 51.02258 | -16.51983 | 40170 ft | 474 kts | 87° |
| 2026-05-03 20:54 | 51.02166 | -16.41552 | 40163 ft | 474 kts | 87° |
| 2026-05-03 20:54 | 51.02011 | -16.25975 | 40152 ft | 475 kts | 88° |
| 2026-05-03 20:55 | 51.01896 | -16.15550 | 40165 ft | 474 kts | 88° |
| 2026-05-03 20:55 | 51.01772 | -16.05057 | 40169 ft | 476 kts | 88° |
| 2026-05-03 20:56 | 51.01637 | -15.94603 | 40159 ft | 474 kts | 88° |
| 2026-05-03 20:56 | 51.01495 | -15.84230 | 40167 ft | 473 kts | 88° |
| 2026-05-03 20:57 | 51.01343 | -15.73818 | 40151 ft | 474 kts | 88° |
| 2026-05-03 20:57 | 51.01182 | -15.63397 | 40155 ft | 474 kts | 88° |
| 2026-05-03 20:58 | 51.01011 | -15.52991 | 40143 ft | 473 kts | 88° |
| 2026-05-03 20:58 | 51.00831 | -15.42564 | 40138 ft | 474 kts | 88° |
| 2026-05-03 20:59 | 51.00642 | -15.32158 | 40139 ft | 475 kts | 89° |
| 2026-05-03 20:59 | 51.00444 | -15.21738 | 40135 ft | 475 kts | 89° |
| 2026-05-03 21:00 | 51.00270 | -15.13009 | 40126 ft | 475 kts | 89° |
| 2026-05-03 21:00 | 51.00019 | -15.00874 | 40123 ft | 475 kts | 89° |
| 2026-05-03 21:01 | 50.99987 | -14.90422 | 40123 ft | 474 kts | 86° |
| 2026-05-03 21:01 | 51.00041 | -14.80026 | 40124 ft | 473 kts | 86° |
| 2026-05-03 21:02 | 51.00076 | -14.69630 | 40123 ft | 474 kts | 86° |
| 2026-05-03 21:02 | 51.00096 | -14.59220 | 40121 ft | 474 kts | 86° |
| 2026-05-03 21:03 | 51.00103 | -14.48808 | 40119 ft | 475 kts | 86° |
| 2026-05-03 21:03 | 51.00099 | -14.38378 | 40118 ft | 475 kts | 86° |
| 2026-05-03 21:04 | 51.00085 | -14.27923 | 40110 ft | 474 kts | 88° |
| 2026-05-03 21:04 | 51.00061 | -14.17559 | 40114 ft | 474 kts | 88° |
| 2026-05-03 21:05 | 51.00028 | -14.07106 | 40110 ft | 474 kts | 88° |
| 2026-05-03 21:05 | 50.99731 | -13.96668 | 40104 ft | 476 kts | 94° |
| 2026-05-03 21:06 | 50.98914 | -13.86270 | 40092 ft | 479 kts | 94° |
| 2026-05-03 21:06 | 50.98497 | -13.81071 | 40195 ft | 481 kts | 94° |
| 2026-05-03 21:06 | 50.98074 | -13.75827 | 40416 ft | 480 kts | 95° |
| 2026-05-03 21:07 | 50.97650 | -13.70608 | 40649 ft | 478 kts | 95° |
| 2026-05-03 21:07 | 50.97221 | -13.65345 | 40807 ft | 479 kts | 95° |
| 2026-05-03 21:07 | 50.96793 | -13.60130 | 40943 ft | 479 kts | 95° |
| 2026-05-03 21:07 | 50.96364 | -13.54929 | 41057 ft | 480 kts | 95° |
| 2026-05-03 21:08 | 50.95495 | -13.44478 | 41060 ft | 479 kts | 95° |
| 2026-05-03 21:08 | 50.94620 | -13.34074 | 41063 ft | 478 kts | 95° |
| 2026-05-03 21:09 | 50.93731 | -13.23613 | 41045 ft | 480 kts | 95° |
| 2026-05-03 21:09 | 50.92835 | -13.13177 | 41054 ft | 480 kts | 95° |
| 2026-05-03 21:10 | 50.91931 | -13.02768 | 41054 ft | 481 kts | 96° |
| 2026-05-03 21:10 | 50.91012 | -12.92296 | 41041 ft | 481 kts | 96° |
| 2026-05-03 21:11 | 50.90084 | -12.81840 | 41043 ft | 480 kts | 96° |
| 2026-05-03 21:11 | 50.89154 | -12.71453 | 41035 ft | 481 kts | 96° |
| 2026-05-03 21:12 | 50.88207 | -12.60996 | 41032 ft | 481 kts | 96° |
| 2026-05-03 21:12 | 50.87252 | -12.50559 | 41026 ft | 480 kts | 96° |
| 2026-05-03 21:13 | 50.86292 | -12.40157 | 41029 ft | 480 kts | 96° |
| 2026-05-03 21:13 | 50.85324 | -12.29785 | 41025 ft | 481 kts | 96° |
| 2026-05-03 21:14 | 50.84336 | -12.19309 | 41026 ft | 482 kts | 96° |
| 2026-05-03 21:14 | 50.83342 | -12.08861 | 41028 ft | 481 kts | 97° |
| 2026-05-03 21:15 | 50.82346 | -11.98503 | 41021 ft | 481 kts | 96° |
| 2026-05-03 21:15 | 50.81335 | -11.88087 | 41019 ft | 481 kts | 96° |
| 2026-05-03 21:16 | 50.80317 | -11.77689 | 41013 ft | 481 kts | 97° |
| 2026-05-03 21:16 | 50.79285 | -11.67260 | 41005 ft | 481 kts | 97° |
| 2026-05-03 21:17 | 50.78421 | -11.58596 | 41006 ft | 481 kts | 97° |
| 2026-05-03 21:17 | 50.77203 | -11.46498 | 40996 ft | 482 kts | 97° |
| 2026-05-03 21:18 | 50.76149 | -11.36133 | 40992 ft | 481 kts | 97° |
| 2026-05-03 21:18 | 50.75080 | -11.25724 | 40993 ft | 481 kts | 97° |
| 2026-05-03 21:19 | 50.74002 | -11.15312 | 40988 ft | 481 kts | 98° |
| 2026-05-03 21:19 | 50.72919 | -11.04956 | 40988 ft | 481 kts | 97° |
| 2026-05-03 21:20 | 50.71829 | -10.94612 | 40977 ft | 481 kts | 98° |
| 2026-05-03 21:20 | 50.70722 | -10.84210 | 40977 ft | 482 kts | 98° |
| 2026-05-03 21:21 | 50.69612 | -10.73863 | 40973 ft | 482 kts | 98° |
| 2026-05-03 21:21 | 50.68491 | -10.63507 | 40973 ft | 482 kts | 98° |
| 2026-05-03 21:22 | 50.67357 | -10.53124 | 40970 ft | 482 kts | 98° |
| 2026-05-03 21:22 | 50.66215 | -10.42761 | 40965 ft | 482 kts | 98° |
| 2026-05-03 21:23 | 50.65080 | -10.32542 | 40966 ft | 482 kts | 98° |
| 2026-05-03 21:23 | 50.63913 | -10.22124 | 40962 ft | 482 kts | 98° |
| 2026-05-03 21:24 | 50.62748 | -10.11808 | 40957 ft | 482 kts | 99° |
| 2026-05-03 21:24 | 50.61573 | -10.01488 | 40950 ft | 482 kts | 99° |
| 2026-05-03 21:25 | 50.60380 | -9.91098 | 40949 ft | 483 kts | 99° |
| 2026-05-03 21:25 | 50.59184 | -9.80770 | 40948 ft | 483 kts | 99° |
| 2026-05-03 21:26 | 50.57978 | -9.70439 | 40950 ft | 482 kts | 99° |
| 2026-05-03 21:26 | 50.56765 | -9.60129 | 40946 ft | 482 kts | 99° |
| 2026-05-03 21:27 | 50.55542 | -9.49823 | 40948 ft | 483 kts | 99° |
| 2026-05-03 21:27 | 50.54305 | -9.39472 | 40939 ft | 483 kts | 99° |
| 2026-05-03 21:28 | 50.53057 | -9.29120 | 40938 ft | 483 kts | 100° |
| 2026-05-03 21:28 | 50.51805 | -9.18815 | 40938 ft | 484 kts | 100° |
| 2026-05-03 21:29 | 50.50541 | -9.08487 | 40936 ft | 483 kts | 100° |
| 2026-05-03 21:29 | 50.49269 | -8.98167 | 40936 ft | 484 kts | 100° |
| 2026-05-03 21:30 | 50.47989 | -8.87875 | 40938 ft | 483 kts | 100° |
| 2026-05-03 21:30 | 50.46698 | -8.77566 | 40933 ft | 483 kts | 100° |
| 2026-05-03 21:31 | 50.45394 | -8.67234 | 40934 ft | 484 kts | 100° |
| 2026-05-03 21:31 | 50.44079 | -8.56893 | 40934 ft | 484 kts | 100° |
| 2026-05-03 21:32 | 50.42765 | -8.46643 | 40935 ft | 484 kts | 100° |
| 2026-05-03 21:32 | 50.41435 | -8.36334 | 40934 ft | 484 kts | 100° |
| 2026-05-03 21:33 | 50.40086 | -8.25962 | 40934 ft | 484 kts | 101° |
| 2026-05-03 21:33 | 50.38742 | -8.15700 | 40932 ft | 485 kts | 101° |
| 2026-05-03 21:34 | 50.37379 | -8.05371 | 40933 ft | 484 kts | 101° |
| 2026-05-03 21:34 | 50.35799 | -7.95210 | 40934 ft | 484 kts | 105° |
| 2026-05-03 21:35 | 50.34013 | -7.85046 | 40931 ft | 485 kts | 105° |
| 2026-05-03 21:35 | 50.32225 | -7.74975 | 40932 ft | 485 kts | 105° |
| 2026-05-03 21:36 | 50.30419 | -7.64864 | 40930 ft | 485 kts | 105° |
| 2026-05-03 21:36 | 50.28593 | -7.54709 | 40929 ft | 485 kts | 105° |
| 2026-05-03 21:37 | 50.26776 | -7.44670 | 40928 ft | 484 kts | 105° |
| 2026-05-03 21:37 | 50.24941 | -7.34581 | 40928 ft | 484 kts | 106° |
| 2026-05-03 21:38 | 50.23102 | -7.24528 | 40927 ft | 485 kts | 106° |
| 2026-05-03 21:38 | 50.21247 | -7.14445 | 40925 ft | 485 kts | 106° |
| 2026-05-03 21:39 | 50.19385 | -7.04378 | 40927 ft | 485 kts | 106° |
| 2026-05-03 21:39 | 50.17505 | -6.94273 | 40926 ft | 485 kts | 106° |
| 2026-05-03 21:40 | 50.15620 | -6.84192 | 40930 ft | 485 kts | 106° |
| 2026-05-03 21:40 | 50.13731 | -6.74146 | 40929 ft | 485 kts | 106° |
| 2026-05-03 21:41 | 50.11838 | -6.64134 | 40928 ft | 485 kts | 106° |
| 2026-05-03 21:41 | 50.09927 | -6.54080 | 40925 ft | 485 kts | 106° |
| 2026-05-03 21:42 | 50.08018 | -6.44088 | 40924 ft | 485 kts | 106° |
| 2026-05-03 21:42 | 50.06087 | -6.34034 | 40911 ft | 484 kts | 107° |
| 2026-05-03 21:43 | 50.04158 | -6.24042 | 40911 ft | 484 kts | 107° |
| 2026-05-03 21:43 | 50.02211 | -6.14016 | 40912 ft | 484 kts | 107° |
| 2026-05-03 21:44 | 50.00263 | -6.04028 | 40911 ft | 484 kts | 107° |
| 2026-05-03 21:44 | 49.98301 | -5.94027 | 40904 ft | 485 kts | 107° |
| 2026-05-03 21:45 | 49.96343 | -5.84096 | 40907 ft | 485 kts | 107° |
| 2026-05-03 21:45 | 49.94366 | -5.74122 | 40907 ft | 485 kts | 107° |
| 2026-05-03 21:46 | 49.92385 | -5.64178 | 40905 ft | 485 kts | 107° |
| 2026-05-03 21:46 | 49.90392 | -5.54223 | 40908 ft | 484 kts | 107° |
| 2026-05-03 21:47 | 49.88393 | -5.44289 | 40907 ft | 484 kts | 107° |
| 2026-05-03 21:47 | 49.86387 | -5.34374 | 40911 ft | 484 kts | 108° |
| 2026-05-03 21:48 | 49.84365 | -5.24426 | 40906 ft | 485 kts | 108° |
| 2026-05-03 21:48 | 49.82336 | -5.14494 | 40903 ft | 486 kts | 108° |
| 2026-05-03 21:49 | 49.80299 | -5.04578 | 40908 ft | 485 kts | 108° |
| 2026-05-03 21:49 | 49.78269 | -4.94738 | 40910 ft | 484 kts | 108° |
| 2026-05-03 21:50 | 49.76215 | -4.84835 | 40912 ft | 485 kts | 108° |
| 2026-05-03 21:50 | 49.74155 | -4.74949 | 40910 ft | 485 kts | 109° |
| 2026-05-03 21:51 | 49.72082 | -4.65054 | 40909 ft | 485 kts | 109° |
| 2026-05-03 21:51 | 49.70686 | -4.54901 | 40914 ft | 487 kts | 99° |
| 2026-05-03 21:52 | 49.69681 | -4.44585 | 40913 ft | 487 kts | 99° |
| 2026-05-03 21:52 | 49.68657 | -4.34306 | 40911 ft | 487 kts | 100° |
| 2026-05-03 21:53 | 49.67612 | -4.24002 | 40912 ft | 487 kts | 100° |
| 2026-05-03 21:53 | 49.66555 | -4.13730 | 40912 ft | 488 kts | 100° |
| 2026-05-03 21:54 | 49.65483 | -4.03426 | 40912 ft | 487 kts | 100° |
| 2026-05-03 21:54 | 49.64610 | -3.93161 | 40919 ft | 488 kts | 96° |
| 2026-05-03 21:55 | 49.64022 | -3.82736 | 40922 ft | 488 kts | 96° |
| 2026-05-03 21:55 | 49.63409 | -3.72364 | 40924 ft | 488 kts | 96° |
| 2026-05-03 21:56 | 49.62770 | -3.61945 | 40926 ft | 489 kts | 96° |
| 2026-05-03 21:56 | 49.62117 | -3.51566 | 40929 ft | 488 kts | 96° |
| 2026-05-03 21:57 | 49.61451 | -3.41197 | 40930 ft | 488 kts | 96° |
| 2026-05-03 21:57 | 49.60773 | -3.30823 | 40927 ft | 488 kts | 97° |
| 2026-05-03 21:58 | 49.60083 | -3.20412 | 40929 ft | 487 kts | 97° |
| 2026-05-03 21:58 | 49.59389 | -3.10101 | 40929 ft | 488 kts | 97° |
| 2026-05-03 21:59 | 49.58681 | -2.99736 | 40930 ft | 487 kts | 97° |
| 2026-05-03 21:59 | 49.57962 | -2.89348 | 40931 ft | 488 kts | 97° |
| 2026-05-03 22:00 | 49.57240 | -2.79038 | 40933 ft | 488 kts | 97° |
| 2026-05-03 22:00 | 49.56503 | -2.68671 | 40931 ft | 488 kts | 97° |
| 2026-05-03 22:01 | 49.55761 | -2.58360 | 40937 ft | 488 kts | 97° |
| 2026-05-03 22:01 | 49.55005 | -2.47983 | 40935 ft | 488 kts | 98° |
| 2026-05-03 22:02 | 49.54239 | -2.37600 | 40931 ft | 488 kts | 98° |
| 2026-05-03 22:02 | 49.53467 | -2.27265 | 40932 ft | 489 kts | 98° |
| 2026-05-03 22:03 | 49.52683 | -2.16898 | 40930 ft | 489 kts | 98° |
| 2026-05-03 22:03 | 49.51890 | -2.06532 | 40930 ft | 489 kts | 98° |
| 2026-05-03 22:04 | 49.51089 | -1.96193 | 40931 ft | 489 kts | 98° |
| 2026-05-03 22:04 | 49.50277 | -1.85827 | 40927 ft | 489 kts | 98° |
| 2026-05-03 22:05 | 49.49457 | -1.75485 | 40922 ft | 490 kts | 98° |
| 2026-05-03 22:05 | 49.48628 | -1.65153 | 40916 ft | 490 kts | 98° |
| 2026-05-03 22:06 | 49.47788 | -1.54796 | 40931 ft | 490 kts | 98° |
| 2026-05-03 22:06 | 49.46937 | -1.44425 | 40929 ft | 491 kts | 99° |
| 2026-05-03 22:07 | 49.46075 | -1.34042 | 40926 ft | 491 kts | 99° |
| 2026-05-03 22:07 | 49.45202 | -1.23639 | 40927 ft | 490 kts | 99° |
| 2026-05-03 22:08 | 49.44324 | -1.13293 | 40920 ft | 490 kts | 99° |
| 2026-05-03 22:08 | 49.43446 | -1.03046 | 40448 ft | 482 kts | 99° |
| 2026-05-03 22:09 | 49.43005 | -0.97952 | 39366 ft | 490 kts | 100° |
| 2026-05-03 22:09 | 49.42552 | -0.92741 | 38361 ft | 496 kts | 100° |
| 2026-05-03 22:09 | 49.42098 | -0.87550 | 37518 ft | 501 kts | 101° |
| 2026-05-03 22:10 | 49.41160 | -0.76904 | 35740 ft | 510 kts | 102° |
| 2026-05-03 22:10 | 49.40683 | -0.71531 | 34815 ft | 514 kts | 103° |
| 2026-05-03 22:10 | 49.40200 | -0.66130 | 33860 ft | 518 kts | 103° |
| 2026-05-03 22:10 | 49.39712 | -0.60704 | 32773 ft | 521 kts | 103° |
| 2026-05-03 22:11 | 49.39213 | -0.55171 | 31681 ft | 521 kts | 103° |
| 2026-05-03 22:11 | 49.38723 | -0.49755 | 30658 ft | 520 kts | 104° |
| 2026-05-03 22:11 | 49.38224 | -0.44278 | 29963 ft | 512 kts | 103° |
| 2026-05-03 22:11 | 49.37745 | -0.39006 | 29535 ft | 501 kts | 103° |
| 2026-05-03 22:12 | 49.37259 | -0.33719 | 28909 ft | 494 kts | 104° |
| 2026-05-03 22:12 | 49.36783 | -0.28583 | 28286 ft | 488 kts | 104° |
| 2026-05-03 22:12 | 49.36309 | -0.23446 | 27683 ft | 482 kts | 103° |
| 2026-05-03 22:12 | 49.35973 | -0.18401 | 27277 ft | 473 kts | 100° |
| 2026-05-03 22:13 | 49.35679 | -0.13448 | 26916 ft | 471 kts | 100° |
| 2026-05-03 22:13 | 49.35376 | -0.08461 | 26511 ft | 474 kts | 100° |
| 2026-05-03 22:13 | 49.35064 | -0.03403 | 26096 ft | 471 kts | 100° |
| 2026-05-03 22:13 | 49.34755 | 0.01540 | 25695 ft | 467 kts | 100° |
| 2026-05-03 22:14 | 49.34440 | 0.06509 | 25287 ft | 465 kts | 100° |
| 2026-05-03 22:14 | 49.34125 | 0.11426 | 24889 ft | 463 kts | 99° |
| 2026-05-03 22:14 | 49.33807 | 0.16337 | 24480 ft | 459 kts | 99° |
| 2026-05-03 22:14 | 49.33494 | 0.21142 | 24082 ft | 457 kts | 99° |
| 2026-05-03 22:15 | 49.33176 | 0.25970 | 23681 ft | 455 kts | 99° |
| 2026-05-03 22:15 | 49.32855 | 0.30802 | 23282 ft | 452 kts | 99° |
| 2026-05-03 22:15 | 49.32539 | 0.35534 | 22894 ft | 448 kts | 99° |
| 2026-05-03 22:15 | 49.32223 | 0.40234 | 22503 ft | 445 kts | 99° |
| 2026-05-03 22:16 | 49.31907 | 0.44914 | 22117 ft | 440 kts | 99° |
| 2026-05-03 22:16 | 49.31594 | 0.49518 | 21740 ft | 431 kts | 99° |
| 2026-05-03 22:16 | 49.31410 | 0.54099 | 21367 ft | 426 kts | 94° |
| 2026-05-03 22:16 | 49.31389 | 0.58569 | 21004 ft | 424 kts | 93° |
| 2026-05-03 22:17 | 49.31369 | 0.63085 | 20632 ft | 423 kts | 93° |
| 2026-05-03 22:17 | 49.31339 | 0.67559 | 20259 ft | 419 kts | 94° |
| 2026-05-03 22:17 | 49.31301 | 0.72044 | 19890 ft | 416 kts | 94° |
| 2026-05-03 22:17 | 49.31256 | 0.76491 | 19525 ft | 413 kts | 94° |
| 2026-05-03 22:18 | 49.31209 | 0.80877 | 19164 ft | 410 kts | 94° |
| 2026-05-03 22:18 | 49.31158 | 0.85188 | 18813 ft | 409 kts | 94° |
| 2026-05-03 22:18 | 49.31103 | 0.89547 | 18457 ft | 407 kts | 94° |
| 2026-05-03 22:18 | 49.31045 | 0.93894 | 18102 ft | 404 kts | 94° |
| 2026-05-03 22:19 | 49.30987 | 0.98175 | 17756 ft | 402 kts | 94° |
| 2026-05-03 22:19 | 49.30927 | 1.02405 | 17404 ft | 398 kts | 94° |
| 2026-05-03 22:19 | 49.30865 | 1.06614 | 17072 ft | 396 kts | 94° |
| 2026-05-03 22:19 | 49.30802 | 1.10807 | 16727 ft | 394 kts | 94° |
| 2026-05-03 22:20 | 49.30737 | 1.14994 | 16382 ft | 391 kts | 94° |
| 2026-05-03 22:20 | 49.30671 | 1.19125 | 16041 ft | 388 kts | 94° |
| 2026-05-03 22:20 | 49.30605 | 1.23238 | 15712 ft | 386 kts | 94° |
| 2026-05-03 22:20 | 49.30537 | 1.27299 | 15396 ft | 384 kts | 94° |
| 2026-05-03 22:21 | 49.30467 | 1.31388 | 15055 ft | 382 kts | 94° |
| 2026-05-03 22:21 | 49.30397 | 1.35410 | 14729 ft | 378 kts | 94° |
| 2026-05-03 22:21 | 49.30327 | 1.39433 | 14385 ft | 376 kts | 93° |
| 2026-05-03 22:21 | 49.30254 | 1.43439 | 14060 ft | 374 kts | 93° |
| 2026-05-03 22:22 | 49.30181 | 1.47394 | 13724 ft | 372 kts | 93° |
| 2026-05-03 22:22 | 49.30107 | 1.51335 | 13402 ft | 371 kts | 94° |
| 2026-05-03 22:22 | 49.30032 | 1.55266 | 13076 ft | 369 kts | 93° |
| 2026-05-03 22:22 | 49.29938 | 1.59196 | 12762 ft | 366 kts | 95° |
| 2026-05-03 22:23 | 49.29765 | 1.63061 | 12573 ft | 367 kts | 96° |
| 2026-05-03 22:23 | 49.29582 | 1.66966 | 12336 ft | 367 kts | 96° |
| 2026-05-03 22:23 | 49.29401 | 1.70894 | 11963 ft | 365 kts | 96° |
| 2026-05-03 22:23 | 49.29224 | 1.74737 | 11591 ft | 363 kts | 96° |
| 2026-05-03 22:24 | 49.29048 | 1.78567 | 11222 ft | 360 kts | 96° |
| 2026-05-03 22:24 | 49.28876 | 1.82350 | 10954 ft | 356 kts | 96° |
| 2026-05-03 22:24 | 49.28701 | 1.86173 | 10929 ft | 359 kts | 96° |
| 2026-05-03 22:24 | 49.28526 | 1.89963 | 10928 ft | 359 kts | 96° |
| 2026-05-03 22:25 | 49.28349 | 1.93782 | 10930 ft | 359 kts | 96° |
| 2026-05-03 22:25 | 49.28172 | 1.97579 | 10927 ft | 360 kts | 96° |
| 2026-05-03 22:25 | 49.27993 | 2.01411 | 10937 ft | 360 kts | 96° |
| 2026-05-03 22:25 | 49.27812 | 2.05235 | 10936 ft | 361 kts | 96° |
| 2026-05-03 22:26 | 49.27631 | 2.09031 | 10935 ft | 361 kts | 96° |
| 2026-05-03 22:26 | 49.27448 | 2.12859 | 10927 ft | 360 kts | 96° |
| 2026-05-03 22:26 | 49.27262 | 2.16716 | 10954 ft | 362 kts | 96° |
| 2026-05-03 22:26 | 49.27076 | 2.20550 | 10969 ft | 363 kts | 96° |
| 2026-05-03 22:27 | 49.26889 | 2.24361 | 10948 ft | 361 kts | 96° |
| 2026-05-03 22:27 | 49.26700 | 2.28214 | 10939 ft | 360 kts | 96° |
| 2026-05-03 22:27 | 49.26514 | 2.31983 | 10916 ft | 350 kts | 96° |
| 2026-05-03 22:27 | 49.26333 | 2.35619 | 10597 ft | 341 kts | 96° |
| 2026-05-03 22:28 | 49.26157 | 2.39148 | 10428 ft | 325 kts | 96° |
| 2026-05-03 22:28 | 49.25986 | 2.42546 | 10218 ft | 310 kts | 97° |
| 2026-05-03 22:28 | 49.25826 | 2.45711 | 9976 ft | 298 kts | 97° |
| 2026-05-03 22:28 | 49.25664 | 2.48855 | 9679 ft | 296 kts | 97° |
| 2026-05-03 22:29 | 49.25460 | 2.52004 | 9291 ft | 295 kts | 101° |
| 2026-05-03 22:29 | 49.25120 | 2.55076 | 8955 ft | 293 kts | 103° |
| 2026-05-03 22:29 | 49.24757 | 2.58116 | 8641 ft | 290 kts | 102° |
| 2026-05-03 22:29 | 49.24396 | 2.61147 | 8325 ft | 289 kts | 103° |
| 2026-05-03 22:30 | 49.24043 | 2.64149 | 8019 ft | 288 kts | 102° |
| 2026-05-03 22:30 | 49.23696 | 2.67124 | 7941 ft | 286 kts | 103° |
| 2026-05-03 22:30 | 49.23342 | 2.70135 | 7961 ft | 289 kts | 103° |
| 2026-05-03 22:30 | 49.22988 | 2.73157 | 7951 ft | 287 kts | 103° |
| 2026-05-03 22:31 | 49.22639 | 2.76155 | 7892 ft | 285 kts | 103° |
| 2026-05-03 22:31 | 49.22295 | 2.79117 | 7581 ft | 285 kts | 103° |
| 2026-05-03 22:31 | 49.21946 | 2.82095 | 7218 ft | 285 kts | 103° |
| 2026-05-03 22:31 | 49.21593 | 2.85096 | 6905 ft | 284 kts | 103° |
| 2026-05-03 22:32 | 49.21244 | 2.88020 | 6605 ft | 282 kts | 103° |
| 2026-05-03 22:32 | 49.20891 | 2.90987 | 6316 ft | 280 kts | 103° |
| 2026-05-03 22:32 | 49.20547 | 2.93872 | 6009 ft | 280 kts | 103° |
| 2026-05-03 22:32 | 49.19982 | 2.96689 | 5663 ft | 274 kts | 123° |
| 2026-05-03 22:33 | 49.18727 | 2.98765 | 5296 ft | 267 kts | 150° |
| 2026-05-03 22:33 | 49.17051 | 2.99940 | 5006 ft | 262 kts | 161° |
| 2026-05-03 22:33 | 49.15353 | 3.00910 | 4960 ft | 253 kts | 162° |
| 2026-05-03 22:33 | 49.13739 | 3.01833 | 4956 ft | 244 kts | 162° |
| 2026-05-03 22:34 | 49.12164 | 3.02678 | 4953 ft | 241 kts | 170° |
| 2026-05-03 22:34 | 49.10528 | 3.02585 | 4947 ft | 237 kts | 200° |
| 2026-05-03 22:34 | 49.09139 | 3.01276 | 4957 ft | 235 kts | 220° |
| 2026-05-03 22:34 | 49.07906 | 2.99619 | 4960 ft | 236 kts | 222° |
| 2026-05-03 22:35 | 49.06678 | 2.97936 | 4959 ft | 236 kts | 222° |
| 2026-05-03 22:35 | 49.05493 | 2.96250 | 4950 ft | 235 kts | 230° |
| 2026-05-03 22:35 | 49.04787 | 2.94009 | 4948 ft | 238 kts | 257° |
| 2026-05-03 22:35 | 49.04562 | 2.91523 | 4945 ft | 238 kts | 262° |
| 2026-05-03 22:36 | 49.04405 | 2.88984 | 4644 ft | 243 kts | 263° |
| 2026-05-03 22:36 | 49.04265 | 2.86425 | 4321 ft | 245 kts | 264° |
| 2026-05-03 22:36 | 49.04127 | 2.83794 | 3987 ft | 247 kts | 264° |
| 2026-05-03 22:36 | 49.03994 | 2.81215 | 3663 ft | 248 kts | 264° |
| 2026-05-03 22:37 | 49.03857 | 2.78562 | 3333 ft | 250 kts | 265° |
| 2026-05-03 22:37 | 49.03723 | 2.75954 | 2986 ft | 252 kts | 265° |
| 2026-05-03 22:37 | 49.03585 | 2.73281 | 2645 ft | 253 kts | 265° |
| 2026-05-03 22:37 | 49.03447 | 2.70631 | 2303 ft | 244 kts | 264° |
| 2026-05-03 22:38 | 49.03314 | 2.68187 | 2000 ft | 220 kts | 264° |
| 2026-05-03 22:38 | 49.03191 | 2.65971 | 1722 ft | 206 kts | 264° |
| 2026-05-03 22:38 | 49.03080 | 2.63884 | 1475 ft | 191 kts | 263° |
| 2026-05-03 22:38 | 49.02975 | 2.61931 | 1210 ft | 177 kts | 264° |
| 2026-05-03 22:39 | 49.02882 | 2.60157 | 961 ft | 158 kts | 263° |
| 2026-05-03 22:39 | 49.02801 | 2.58632 | 720 ft | 137 kts | 263° |
| 2026-05-03 22:39 | 49.02730 | 2.57227 | 573 ft | 128 kts | 263° |
| 2026-05-03 22:39 | 49.02660 | 2.55876 | 419 ft | 127 kts | 263° |
| 2026-05-03 22:40 | 49.02587 | 2.54621 | 385 ft | 106 kts | 262° |
| 2026-05-03 22:40 | 49.02528 | 2.53684 | 384 ft | 70 kts | 266° |
| 2026-05-03 22:40 | 49.02499 | 2.53126 | 382 ft | 38 kts | 265° |
| 2026-05-03 22:40 | 49.02443 | 2.52785 | 382 ft | 26 kts | 236° |
| 2026-05-03 22:41 | 49.02355 | 2.52692 | 382 ft | 9 kts | 189° |
| 2026-05-03 22:41 | 49.02261 | 2.52703 | 382 ft | 17 kts | 174° |
| 2026-05-03 22:41 | 49.02112 | 2.52723 | 381 ft | 25 kts | 176° |
| 2026-05-03 22:41 | 49.01918 | 2.52742 | 378 ft | 27 kts | 173° |
| 2026-05-03 22:42 | 49.01837 | 2.52827 | 376 ft | 20 kts | 107° |
| 2026-05-03 22:42 | 49.01848 | 2.53205 | 373 ft | 32 kts | 86° |
| 2026-05-03 22:42 | 49.01868 | 2.53586 | 371 ft | 39 kts | 85° |
| 2026-05-03 22:42 | 49.01891 | 2.53966 | 372 ft | 27 kts | 85° |
| 2026-05-03 22:43 | 49.01908 | 2.54266 | 374 ft | 29 kts | 86° |
| 2026-05-03 22:43 | 49.01923 | 2.54580 | 374 ft | 31 kts | 85° |
| 2026-05-03 22:43 | 49.01940 | 2.54881 | 376 ft | 27 kts | 85° |
| 2026-05-03 22:43 | 49.01899 | 2.55101 | 377 ft | 23 kts | 152° |
| 2026-05-03 22:44 | 49.01728 | 2.55143 | 374 ft | 26 kts | 176° |
| 2026-05-03 22:44 | 49.01531 | 2.55165 | 370 ft | 30 kts | 175° |
| 2026-05-03 22:44 | 49.01316 | 2.55216 | 363 ft | 32 kts | 190° |
| 2026-05-03 22:44 | 49.01086 | 2.55194 | 356 ft | 34 kts | 165° |
| 2026-05-03 22:45 | 49.00844 | 2.55301 | 347 ft | 37 kts | 163° |
| 2026-05-03 22:45 | 49.00589 | 2.55413 | 342 ft | 38 kts | 165° |
| 2026-05-03 22:45 | 49.00371 | 2.55504 | 338 ft | 25 kts | 164° |
| 2026-05-03 22:45 | 49.00206 | 2.55577 | 337 ft | 19 kts | 164° |
| 2026-05-03 22:46 | 49.00071 | 2.55634 | 336 ft | 21 kts | 165° |
| 2026-05-03 22:46 | 48.99937 | 2.55731 | 335 ft | 14 kts | 123° |
| 2026-05-03 22:46 | 48.99903 | 2.55877 | 338 ft | 15 kts | 105° |
| 2026-05-03 22:46 | 48.99891 | 2.56040 | 341 ft | 15 kts | 89° |
| 2026-05-03 22:47 | 48.99900 | 2.56208 | 344 ft | 16 kts | 85° |
| 2026-05-03 22:47 | 48.99910 | 2.56395 | 348 ft | 19 kts | 85° |
| 2026-05-03 22:47 | 48.99921 | 2.56609 | 350 ft | 22 kts | 86° |
| 2026-05-03 22:47 | 48.99937 | 2.56851 | 355 ft | 23 kts | 85° |
| 2026-05-03 22:48 | 48.99945 | 2.56988 | 358 ft | 1 kts | 82° |
| 2026-05-03 22:48 | 48.99948 | 2.57049 | 359 ft | 12 kts | 86° |
| 2026-05-03 22:48 | 48.99958 | 2.57256 | 359 ft | 26 kts | 87° |
| 2026-05-03 22:48 | 48.99973 | 2.57585 | 353 ft | 34 kts | 85° |
| 2026-05-03 22:49 | 48.99990 | 2.57947 | 344 ft | 29 kts | 86° |
| 2026-05-03 22:49 | 49.00006 | 2.58207 | 339 ft | 19 kts | 85° |
| 2026-05-03 22:49 | 49.00066 | 2.58305 | 340 ft | 8 kts | 340° |
| 2026-05-03 22:49 | 49.00084 | 2.58209 | 343 ft | 10 kts | 269° |
| 2026-05-03 22:50 | 49.00088 | 2.58154 | 344 ft | 3 kts | 302° |
| 2026-05-03 22:50 | 49.00111 | 2.58129 | 345 ft | 4 kts | 336° |
| 2026-05-03 22:50 | 49.00127 | 2.58120 | 346 ft | 1 kts | 345° |
| 2026-05-03 22:50 | 49.00139 | 2.58118 | 346 ft | 2 kts | 356° |
| 2026-05-03 22:51 | 49.00148 | 2.58117 | 346 ft | 0 kts | 356° |
| 2026-05-03 22:51 | 49.00150 | 2.58117 | 346 ft | 0 kts | 356° |